Terminal Aerodrome Forecast
Issued by NWS Sterling, VA

Current Version | Previous Version | Graphics & Text | Print | Product List | Glossary On
Versions: 1 2 3 4 5 6 7 8 9 10 11 12 13 14 15
000
FTUS41 KLWX 252000 AAA
TAFMRB
TAF AMD
KMRB 252038Z 2521/2618 29010G17KT P6SM BKN050
     FM252300 28009KT P6SM SCT050
     FM260300 VRB04KT P6SM FEW250=

USA.gov is the U.S. government's official web portal to all federal, state and local government web resources and services.